createdAt,value
2019-03-19T00:00:04.173Z,82.17
2019-03-19T00:00:45.316Z,82.17
2019-03-19T00:01:25.953Z,82.08
2019-03-19T00:02:06.524Z,82.84
2019-03-19T00:02:47.087Z,82.65
2019-03-19T00:03:27.642Z,82.27
2019-03-19T00:04:08.231Z,81.98
2019-03-19T00:04:48.805Z,82.08
2019-03-19T00:05:29.375Z,81.88
2019-03-19T00:06:09.962Z,81.98
2019-03-19T00:06:50.527Z,82.08
2019-03-19T00:07:31.086Z,82.27
2019-03-19T00:08:11.670Z,82.17
2019-03-19T00:08:52.258Z,82.08
2019-03-19T00:09:32.877Z,82.46
2019-03-19T00:10:13.422Z,81.6
2019-03-19T00:10:54.058Z,82.36
2019-03-19T00:11:34.619Z,81.51
2019-03-19T00:12:15.180Z,81.6
2019-03-19T00:12:55.732Z,81.41
2019-03-19T00:13:36.299Z,81.6
2019-03-19T00:14:16.844Z,82.27
2019-03-19T00:14:57.417Z,81.98
2019-03-19T00:15:37.980Z,81.98
2019-03-19T00:16:18.538Z,81.79
2019-03-19T00:16:59.096Z,81.13
2019-03-19T00:17:39.659Z,81.51
2019-03-19T00:18:20.219Z,81.27
2019-03-19T00:19:00.789Z,81.41
2019-03-19T00:19:41.366Z,81.66
2019-03-19T00:20:21.914Z,81.41
2019-03-19T00:21:02.493Z,81.7
2019-03-19T00:21:43.060Z,81.18
2019-03-19T00:22:25.641Z,81.37
2019-03-19T00:23:04.189Z,81.09
2019-03-19T00:23:44.761Z,82.23
2019-03-19T00:24:25.312Z,81.75
2019-03-19T00:25:05.891Z,81.56
2019-03-19T00:25:46.451Z,82.23
2019-03-19T00:26:27.010Z,81.56
2019-03-19T00:27:07.583Z,81.37
2019-03-19T00:27:48.143Z,81.47
2019-03-19T00:28:28.696Z,81.47
2019-03-19T00:29:09.270Z,81.37
2019-03-19T00:29:49.830Z,81.18
2019-03-19T00:30:30.387Z,81.37
2019-03-19T00:31:10.959Z,81.37
2019-03-19T00:31:51.516Z,81.66
2019-03-19T00:32:32.075Z,81.09
2019-03-19T00:33:12.636Z,81.18
2019-03-19T00:33:53.199Z,81.66
2019-03-19T00:34:33.758Z,81.66
2019-03-19T00:35:14.311Z,81.47
2019-03-19T00:35:54.877Z,81.75
2019-03-19T00:36:35.445Z,81.66
2019-03-19T00:37:16.020Z,82.04
2019-03-19T00:37:56.583Z,81.94
2019-03-19T00:38:37.145Z,81.37
2019-03-19T00:39:17.705Z,82.04
2019-03-19T00:39:58.274Z,82.13
2019-03-19T00:40:38.850Z,82.23
2019-03-19T00:41:19.416Z,82.13
2019-03-19T00:41:59.991Z,81.94
2019-03-19T00:42:40.536Z,82.13
2019-03-19T00:43:21.106Z,82.13
2019-03-19T00:44:01.672Z,82.23
2019-03-19T00:44:42.234Z,82.13
2019-03-19T00:45:22.800Z,81.18
2019-03-19T00:46:03.362Z,81.27
2019-03-19T00:46:43.926Z,81.56
2019-03-19T00:47:24.522Z,80.9
2019-03-19T00:48:05.073Z,80.99
2019-03-19T00:48:45.641Z,80.71
2019-03-19T00:49:26.212Z,81.47
2019-03-19T00:50:06.777Z,81.27
2019-03-19T00:50:47.350Z,81.37
2019-03-19T00:51:27.918Z,81.18
2019-03-19T00:52:08.470Z,81.56
2019-03-19T00:52:49.036Z,81.09
2019-03-19T00:53:29.605Z,81.37
2019-03-19T00:54:10.187Z,81.66
2019-03-19T00:54:50.717Z,81.94
2019-03-19T00:55:40.124Z,81.94
2019-03-19T00:56:11.845Z,82.04
2019-03-19T00:56:52.429Z,82.23
2019-03-19T00:57:32.964Z,82.04
2019-03-19T00:58:13.525Z,81.85
2019-03-19T00:58:54.080Z,81.85
2019-03-19T00:59:34.634Z,81.85
2019-03-19T01:00:15.200Z,81.94
2019-03-19T01:00:55.764Z,82.23
2019-03-19T01:01:38.582Z,81.94
2019-03-19T01:02:16.862Z,81.85
2019-03-19T01:02:57.472Z,81.85
2019-03-19T01:03:38.059Z,81.94
2019-03-19T01:04:18.660Z,82.13
2019-03-19T01:04:59.175Z,82.13
2019-03-19T01:05:39.737Z,81.75
2019-03-19T01:06:20.295Z,81.85
2019-03-19T01:07:00.866Z,82.32
2019-03-19T01:07:41.441Z,82.13
2019-03-19T01:08:22.014Z,82.04
2019-03-19T01:09:02.571Z,82.04
2019-03-19T01:09:43.197Z,82.04
2019-03-19T01:10:23.773Z,81.85
2019-03-19T01:11:04.331Z,81.66
2019-03-19T01:11:44.897Z,82.04
2019-03-19T01:12:25.461Z,82.04
2019-03-19T01:13:06.017Z,81.94
2019-03-19T01:13:46.601Z,82.04
2019-03-19T01:14:27.169Z,81.85
2019-03-19T01:15:07.723Z,81.75
2019-03-19T01:15:48.299Z,81.66
2019-03-19T01:16:28.863Z,81.75
2019-03-19T01:17:09.416Z,81.85
2019-03-19T01:17:49.973Z,81.85
2019-03-19T01:18:30.532Z,81.85
2019-03-19T01:19:11.097Z,82.04
2019-03-19T01:19:51.660Z,81.85
2019-03-19T01:20:32.232Z,81.94
2019-03-19T01:21:12.783Z,81.85
2019-03-19T01:21:53.366Z,82.23
2019-03-19T01:22:35.059Z,82.32
2019-03-19T01:23:14.480Z,82.23
2019-03-19T01:23:55.038Z,82.23
2019-03-19T01:24:35.595Z,82.32
2019-03-19T01:25:16.156Z,82.13
2019-03-19T01:25:57.423Z,82.04
2019-03-19T01:26:37.288Z,82.23
2019-03-19T01:27:17.838Z,82.04
2019-03-19T01:27:58.398Z,82.32
2019-03-19T01:28:38.963Z,82.13
2019-03-19T01:29:19.520Z,82.23
2019-03-19T01:30:00.115Z,82.13
2019-03-19T01:30:40.664Z,82.13
2019-03-19T01:31:21.221Z,82.13
2019-03-19T01:32:01.810Z,82.23
2019-03-19T01:32:42.401Z,82.13
2019-03-19T01:33:22.966Z,82.04
2019-03-19T01:34:03.555Z,81.85
2019-03-19T01:34:44.125Z,82.23
2019-03-19T01:35:24.694Z,82.79
2019-03-19T01:36:05.251Z,82.79
2019-03-19T01:36:45.810Z,82.6
2019-03-19T01:37:26.387Z,82.23
2019-03-19T01:38:06.944Z,82.04
2019-03-19T01:38:47.508Z,82.23
2019-03-19T01:39:28.071Z,82.79
2019-03-19T01:40:08.628Z,82.79
2019-03-19T01:40:49.211Z,82.13
2019-03-19T01:41:29.790Z,82.23
2019-03-19T01:42:10.357Z,82.6
2019-03-19T01:42:50.927Z,82.13
2019-03-19T01:43:31.476Z,81.94
2019-03-19T01:44:12.052Z,81.94
2019-03-19T01:44:52.631Z,82.04
2019-03-19T01:45:33.204Z,81.66
2019-03-19T01:46:13.764Z,81.75
2019-03-19T01:46:54.321Z,81.47
2019-03-19T01:47:34.876Z,82.13
2019-03-19T01:48:15.431Z,81.85
2019-03-19T01:48:56.011Z,81.85
2019-03-19T01:49:37.360Z,81.85
2019-03-19T01:50:17.934Z,81.85
2019-03-19T01:50:58.503Z,81.94
2019-03-19T01:51:39.070Z,81.94
2019-03-19T01:52:19.620Z,81.7
2019-03-19T01:53:00.183Z,81.09
2019-03-19T01:53:40.751Z,81.18
2019-03-19T01:54:21.316Z,81.66
2019-03-19T01:55:01.877Z,81.6
2019-03-19T01:55:42.435Z,81.32
2019-03-19T01:56:23.644Z,81.6
2019-03-19T01:57:04.200Z,81.23
2019-03-19T01:57:44.767Z,81.04
2019-03-19T01:58:25.323Z,80.75
2019-03-19T01:59:05.887Z,80.84
2019-03-19T01:59:46.450Z,80.94
2019-03-19T02:00:27.013Z,80.65
2019-03-19T02:01:07.625Z,80.94
2019-03-19T02:01:48.188Z,81.04
2019-03-19T02:02:28.872Z,80.75
2019-03-19T02:03:09.460Z,80.75
2019-03-19T02:03:50.159Z,80.94
2019-03-19T02:04:30.716Z,80.94
2019-03-19T02:05:11.281Z,80.84
2019-03-19T02:05:51.842Z,80.08
2019-03-19T02:06:32.410Z,80.75
2019-03-19T02:07:12.967Z,80.56
2019-03-19T02:07:53.537Z,80.56
2019-03-19T02:08:34.092Z,80.08
2019-03-19T02:09:14.658Z,80.37
2019-03-19T02:09:55.224Z,80.27
2019-03-19T02:10:35.784Z,80.27
2019-03-19T02:11:16.365Z,80.27
2019-03-19T02:11:56.907Z,79.9
2019-03-19T02:12:37.468Z,80.56
2019-03-19T02:13:18.033Z,80.08
2019-03-19T02:13:58.589Z,80.65
2019-03-19T02:14:39.188Z,80.33
2019-03-19T02:15:19.744Z,80.24
2019-03-19T02:16:00.294Z,80.14
2019-03-19T02:16:40.864Z,79.85
2019-03-19T02:17:21.431Z,80.8
2019-03-19T02:18:02.001Z,80.9
2019-03-19T02:18:42.582Z,80.94
2019-03-19T02:19:23.167Z,80.9
2019-03-19T02:20:03.724Z,80.9
2019-03-19T02:20:44.292Z,80.99
2019-03-19T02:21:24.860Z,80.71
2019-03-19T02:22:05.414Z,81.09
2019-03-19T02:22:45.975Z,81.04
2019-03-19T02:23:26.545Z,80.9
2019-03-19T02:24:07.123Z,81.18
2019-03-19T02:24:47.680Z,80.99
2019-03-19T02:25:28.274Z,80.9
2019-03-19T02:26:16.203Z,80.71
2019-03-19T02:26:49.398Z,80.62
2019-03-19T02:27:29.957Z,80.8
2019-03-19T02:28:10.524Z,80.62
2019-03-19T02:28:51.079Z,80.56
2019-03-19T02:29:31.644Z,80.84
2019-03-19T02:30:12.983Z,80.94
2019-03-19T02:30:53.536Z,80.71
2019-03-19T02:31:34.092Z,80.65
2019-03-19T02:32:14.662Z,80.94
2019-03-19T02:32:55.216Z,80.94
2019-03-19T02:33:35.776Z,80.84
2019-03-19T02:34:16.329Z,80.65
2019-03-19T02:34:56.891Z,80.65
2019-03-19T02:35:37.463Z,80.46
2019-03-19T02:36:18.037Z,80.56
2019-03-19T02:36:58.589Z,80.46
2019-03-19T02:37:39.162Z,80.33
2019-03-19T02:38:19.719Z,81.04
2019-03-19T02:39:00.274Z,80.75
2019-03-19T02:39:40.830Z,80.84
2019-03-19T02:40:21.422Z,80.94
2019-03-19T02:41:01.985Z,80.99
2019-03-19T02:41:42.580Z,81.32
2019-03-19T02:42:23.168Z,80.99
2019-03-19T02:43:03.744Z,80.94
2019-03-19T02:43:44.262Z,80.8
2019-03-19T02:44:24.830Z,81.47
2019-03-19T02:45:05.370Z,81.41
2019-03-19T02:45:45.965Z,81.41
2019-03-19T02:46:26.512Z,81.41
2019-03-19T02:47:07.070Z,81.32
2019-03-19T02:47:47.629Z,81.37
2019-03-19T02:48:28.200Z,81.6
2019-03-19T02:49:08.757Z,81.27
2019-03-19T02:49:49.340Z,81.47
2019-03-19T02:50:29.906Z,80.84
2019-03-19T02:51:10.459Z,81.47
2019-03-19T02:51:51.012Z,81.56
2019-03-19T02:52:31.603Z,81.47
2019-03-19T02:53:12.146Z,81.6
2019-03-19T02:53:52.723Z,81.51
2019-03-19T02:54:33.284Z,81.27
2019-03-19T02:55:13.883Z,81.18
2019-03-19T02:55:54.421Z,81.66
2019-03-19T02:56:35.730Z,81.27
2019-03-19T02:57:16.310Z,81.56
2019-03-19T02:57:56.847Z,81.37
2019-03-19T02:58:37.404Z,81.47
2019-03-19T02:59:17.963Z,82.04
2019-03-19T02:59:58.531Z,81.94
2019-03-19T03:00:39.101Z,82.04
2019-03-19T03:01:19.672Z,82.23
2019-03-19T03:02:00.243Z,82.04
2019-03-19T03:02:40.812Z,82.32
2019-03-19T03:03:21.397Z,82.79
2019-03-19T03:04:01.971Z,82.51
2019-03-19T03:04:42.538Z,82.7
2019-03-19T03:05:23.093Z,82.32
2019-03-19T03:06:03.650Z,82.23
2019-03-19T03:06:44.231Z,82.42
2019-03-19T03:07:24.814Z,82.98
2019-03-19T03:08:05.395Z,82.7
2019-03-19T03:08:45.943Z,82.79
2019-03-19T03:09:26.525Z,82.98
2019-03-19T03:10:07.114Z,83.36
2019-03-19T03:10:47.666Z,83.08
2019-03-19T03:11:28.236Z,82.79
2019-03-19T03:12:08.786Z,82.79
2019-03-19T03:12:49.337Z,83.46
2019-03-19T03:13:29.909Z,83.65
2019-03-19T03:14:10.470Z,83.84
2019-03-19T03:14:51.024Z,83.27
2019-03-19T03:15:31.586Z,83.46
2019-03-19T03:16:12.152Z,83.46
2019-03-19T03:16:52.730Z,83.65
2019-03-19T03:17:33.290Z,83.36
2019-03-19T03:18:13.834Z,83.08
2019-03-19T03:18:54.414Z,83.17
2019-03-19T03:19:34.942Z,83.36
2019-03-19T03:20:15.502Z,83.27
2019-03-19T03:20:56.064Z,83.27
2019-03-19T03:21:36.625Z,82.98
2019-03-19T03:22:17.188Z,82.89
2019-03-19T03:22:57.760Z,82.98
2019-03-19T03:23:38.344Z,82.98
2019-03-19T03:24:18.910Z,82.98
2019-03-19T03:24:59.518Z,82.79
2019-03-19T03:25:40.083Z,82.98
2019-03-19T03:26:20.650Z,83.08
2019-03-19T03:27:02.371Z,82.98
2019-03-19T03:27:41.741Z,83.27
2019-03-19T03:28:22.289Z,83.17
2019-03-19T03:29:02.864Z,83.36
2019-03-19T03:29:43.408Z,83.46
2019-03-19T03:30:24.141Z,83.17
2019-03-19T03:31:04.531Z,83.17
2019-03-19T03:31:45.092Z,82.89
2019-03-19T03:32:25.644Z,83.17
2019-03-19T03:33:06.212Z,83.17
2019-03-19T03:33:46.778Z,83.17
2019-03-19T03:34:27.328Z,83.17
2019-03-19T03:35:07.894Z,83.46
2019-03-19T03:35:48.464Z,82.89
2019-03-19T03:36:29.019Z,83.08
2019-03-19T03:37:09.564Z,82.79
2019-03-19T03:37:50.135Z,82.79
2019-03-19T03:38:30.698Z,83.17
2019-03-19T03:39:11.265Z,83.27
2019-03-19T03:39:51.859Z,83.55
2019-03-19T03:40:32.399Z,83.36
2019-03-19T03:41:12.959Z,83.17
2019-03-19T03:41:53.514Z,83.17
2019-03-19T03:42:34.075Z,83.36
2019-03-19T03:43:14.629Z,83.36
2019-03-19T03:43:55.180Z,83.94
2019-03-19T03:44:35.740Z,83.74
2019-03-19T03:45:16.305Z,83.74
2019-03-19T03:45:56.883Z,83.65
2019-03-19T03:46:37.452Z,83.74
2019-03-19T03:47:18.004Z,83.55
2019-03-19T03:47:58.566Z,83.94
2019-03-19T03:48:39.143Z,83.46
2019-03-19T03:49:19.715Z,83.65
2019-03-19T03:50:00.322Z,83.84
2019-03-19T03:50:40.851Z,83.84
2019-03-19T03:51:21.430Z,84.03
2019-03-19T03:52:01.982Z,84.22
2019-03-19T03:52:42.563Z,84.03
2019-03-19T03:53:23.139Z,83.94
2019-03-19T03:54:03.724Z,84.12
2019-03-19T03:54:44.313Z,83.94
2019-03-19T03:55:24.868Z,83.94
2019-03-19T03:56:05.913Z,84.31
2019-03-19T03:57:00.812Z,84.22
2019-03-19T03:57:27.035Z,83.74
2019-03-19T03:58:07.606Z,84.31
2019-03-19T03:58:59.787Z,84.41
2019-03-19T03:59:28.744Z,84.31
2019-03-19T04:00:09.295Z,83.94
2019-03-19T04:00:49.865Z,84.03
2019-03-19T04:01:30.445Z,84.12
2019-03-19T04:02:11.007Z,84.41
2019-03-19T04:02:51.560Z,83.65
2019-03-19T04:03:32.120Z,84.03
2019-03-19T04:04:12.698Z,83.94
2019-03-19T04:04:53.243Z,83.65
2019-03-19T04:05:33.807Z,83.94
2019-03-19T04:06:14.357Z,83.46
2019-03-19T04:06:54.920Z,83.36
2019-03-19T04:07:35.473Z,83.74
2019-03-19T04:08:16.043Z,83.27
2019-03-19T04:08:56.633Z,83.46
2019-03-19T04:09:37.181Z,84.03
2019-03-19T04:10:17.792Z,83.65
2019-03-19T04:10:58.345Z,83.94
2019-03-19T04:11:38.920Z,83.84
2019-03-19T04:12:19.481Z,84.31
2019-03-19T04:13:00.062Z,84.12
2019-03-19T04:13:40.620Z,84.31
2019-03-19T04:14:21.184Z,83.55
2019-03-19T04:15:01.786Z,84.03
2019-03-19T04:15:42.309Z,83.84
2019-03-19T04:16:22.877Z,84.03
2019-03-19T04:17:03.443Z,83.74
2019-03-19T04:17:44.003Z,83.65
2019-03-19T04:18:24.560Z,83.84
2019-03-19T04:19:05.115Z,83.84
2019-03-19T04:19:45.698Z,84.03
2019-03-19T04:20:26.269Z,83.27
2019-03-19T04:21:06.828Z,83.74
2019-03-19T04:21:47.390Z,83.36
2019-03-19T04:22:27.957Z,82.98
2019-03-19T04:23:08.510Z,82.98
2019-03-19T04:23:49.088Z,82.98
2019-03-19T04:24:29.658Z,83.27
2019-03-19T04:25:10.248Z,83.36
2019-03-19T04:25:50.792Z,83.36
2019-03-19T04:26:31.363Z,82.98
2019-03-19T04:27:16.140Z,83.17
2019-03-19T04:27:52.510Z,83.17
2019-03-19T04:28:33.061Z,82.98
2019-03-19T04:29:13.612Z,82.98
2019-03-19T04:29:54.172Z,82.98
2019-03-19T04:30:34.727Z,82.79
2019-03-19T04:31:15.278Z,82.98
2019-03-19T04:31:55.837Z,82.89
2019-03-19T04:32:36.389Z,83.17
2019-03-19T04:33:16.942Z,83.27
2019-03-19T04:33:57.498Z,83.17
2019-03-19T04:34:38.065Z,83.17
2019-03-19T04:35:18.628Z,83.36
2019-03-19T04:35:59.188Z,83.08
2019-03-19T04:36:39.757Z,83.36
2019-03-19T04:37:20.335Z,82.89
2019-03-19T04:38:00.900Z,82.79
2019-03-19T04:38:41.469Z,83.08
2019-03-19T04:39:22.036Z,82.98
2019-03-19T04:40:02.611Z,82.7
2019-03-19T04:40:43.165Z,82.23
2019-03-19T04:41:23.765Z,82.79
2019-03-19T04:42:04.334Z,82.6
2019-03-19T04:42:44.974Z,83.36
2019-03-19T04:43:25.478Z,82.98
2019-03-19T04:44:06.057Z,83.08
2019-03-19T04:44:46.635Z,83.17
2019-03-19T04:45:27.216Z,82.6
2019-03-19T04:46:07.874Z,82.98
2019-03-19T04:46:48.446Z,82.32
2019-03-19T04:47:29.042Z,82.98
2019-03-19T04:48:09.599Z,82.04
2019-03-19T04:48:50.167Z,82.04
2019-03-19T04:49:30.717Z,82.51
2019-03-19T04:50:11.362Z,82.13
2019-03-19T04:50:51.939Z,82.23
2019-03-19T04:51:32.586Z,82.79
2019-03-19T04:52:13.150Z,82.7
2019-03-19T04:52:53.698Z,82.7
2019-03-19T04:53:34.296Z,82.98
2019-03-19T04:54:14.844Z,82.7
2019-03-19T04:54:55.452Z,82.89
2019-03-19T04:55:36.019Z,82.89
2019-03-19T04:56:16.622Z,82.51
2019-03-19T04:56:57.190Z,82.98
2019-03-19T04:57:37.801Z,82.13
2019-03-19T04:58:18.345Z,82.32
2019-03-19T04:58:58.896Z,82.32
2019-03-19T04:59:39.456Z,82.51
2019-03-19T05:00:20.012Z,82.6
2019-03-19T05:01:00.575Z,83.36
2019-03-19T05:01:41.154Z,82.98
2019-03-19T05:02:21.714Z,82.98
2019-03-19T05:03:02.261Z,83.27
2019-03-19T05:03:42.950Z,83.27
2019-03-19T05:04:23.529Z,82.7
2019-03-19T05:05:04.089Z,82.98
2019-03-19T05:05:44.647Z,82.6
2019-03-19T05:06:25.213Z,82.32
2019-03-19T05:07:05.771Z,82.7
2019-03-19T05:07:46.352Z,82.51
2019-03-19T05:08:27.111Z,82.51
2019-03-19T05:09:07.682Z,82.23
2019-03-19T05:09:48.239Z,82.32
2019-03-19T05:10:28.837Z,82.32
2019-03-19T05:11:09.415Z,82.13
2019-03-19T05:11:49.992Z,82.32
2019-03-19T05:12:30.591Z,82.04
2019-03-19T05:13:11.152Z,84.74
2019-03-19T05:13:51.739Z,86.54
2019-03-19T05:14:32.277Z,89.86
2019-03-19T05:15:12.833Z,91.94
2019-03-19T05:15:53.459Z,90.24
2019-03-19T05:16:34.037Z,87.34
2019-03-19T05:17:14.632Z,85.63
2019-03-19T05:17:55.201Z,84.11
2019-03-19T05:18:35.782Z,82.46
2019-03-19T05:19:16.363Z,82.12
2019-03-19T05:19:56.923Z,81.41
2019-03-19T05:20:37.482Z,81.13
2019-03-19T05:21:18.045Z,79.9
2019-03-19T05:21:58.643Z,80.37
2019-03-19T05:22:39.198Z,80.08
2019-03-19T05:23:19.751Z,80.65
2019-03-19T05:24:00.311Z,81.04
2019-03-19T05:24:40.879Z,80.65
2019-03-19T05:25:22.333Z,80.65
2019-03-19T05:26:02.904Z,80.56
2019-03-19T05:26:43.471Z,80.65
2019-03-19T05:27:24.029Z,80.94
2019-03-19T05:28:04.603Z,81.04
2019-03-19T05:28:45.175Z,81.23
2019-03-19T05:29:25.742Z,80.75
2019-03-19T05:30:06.301Z,81.47
2019-03-19T05:30:46.860Z,81.41
2019-03-19T05:31:27.411Z,81.27
2019-03-19T05:32:07.975Z,81.66
2019-03-19T05:32:48.540Z,81.98
2019-03-19T05:33:29.124Z,81.88
2019-03-19T05:34:09.686Z,82.04
2019-03-19T05:34:50.458Z,81.94
2019-03-19T05:35:31.372Z,81.75
2019-03-19T05:36:12.186Z,82.04
2019-03-19T05:36:53.288Z,81.94
2019-03-19T05:37:34.199Z,82.04
2019-03-19T05:38:15.156Z,81.85
2019-03-19T05:38:55.973Z,82.04
2019-03-19T05:39:36.722Z,82.23
2019-03-19T05:40:17.604Z,82.23
2019-03-19T05:40:58.514Z,81.94
2019-03-19T05:41:39.519Z,82.04
2019-03-19T05:42:20.549Z,82.13
2019-03-19T05:43:01.450Z,82.17
2019-03-19T05:43:42.379Z,82.17
2019-03-19T05:44:23.350Z,81.98
2019-03-19T05:45:04.500Z,82.36
2019-03-19T05:45:45.427Z,82.36
2019-03-19T05:46:26.503Z,82.36
2019-03-19T05:47:07.568Z,82.04
2019-03-19T05:47:48.615Z,81.85
2019-03-19T05:48:29.763Z,81.6
2019-03-19T05:49:10.800Z,81.98
2019-03-19T05:49:51.873Z,82.17
2019-03-19T05:50:32.932Z,82.27
2019-03-19T05:51:13.993Z,82.08
2019-03-19T05:51:54.851Z,82.08
2019-03-19T05:52:35.963Z,81.98
2019-03-19T05:53:16.967Z,81.98
2019-03-19T05:53:57.880Z,82.08
2019-03-19T05:54:38.784Z,81.51
2019-03-19T05:55:19.578Z,81.98
2019-03-19T05:56:00.365Z,81.88
2019-03-19T05:56:41.434Z,81.79
2019-03-19T05:57:22.270Z,82.36
2019-03-19T05:58:03.143Z,82.08
2019-03-19T05:58:44.106Z,82.08
2019-03-19T05:59:24.957Z,82.27
2019-03-19T06:00:05.879Z,81.88
2019-03-19T06:00:46.778Z,82.08
2019-03-19T06:01:27.563Z,82.17
2019-03-19T06:02:08.305Z,81.98
2019-03-19T06:02:49.003Z,81.98
2019-03-19T06:03:29.911Z,81.88
2019-03-19T06:04:10.912Z,82.08
2019-03-19T06:04:51.946Z,82.36
2019-03-19T06:05:32.975Z,81.98
2019-03-19T06:06:13.925Z,81.41
2019-03-19T06:06:54.758Z,81.6
2019-03-19T06:07:35.866Z,81.7
2019-03-19T06:08:16.826Z,81.7
2019-03-19T06:08:57.822Z,81.23
2019-03-19T06:09:38.938Z,81.23
2019-03-19T06:10:20.010Z,81.6
2019-03-19T06:11:00.982Z,81.32
2019-03-19T06:11:42.042Z,81.41
2019-03-19T06:12:23.087Z,81.51
2019-03-19T06:13:04.169Z,81.6
2019-03-19T06:13:45.159Z,81.32
2019-03-19T06:14:25.887Z,81.23
2019-03-19T06:15:06.789Z,81.23
2019-03-19T06:15:47.414Z,80.84
2019-03-19T06:16:27.996Z,81.04
2019-03-19T06:17:08.563Z,81.04
2019-03-19T06:17:49.115Z,81.13
2019-03-19T06:18:34.878Z,81.04
2019-03-19T06:19:10.243Z,81.13
2019-03-19T06:19:50.804Z,80.84
2019-03-19T06:20:31.365Z,81.04
2019-03-19T06:21:12.011Z,80.94
2019-03-19T06:21:52.638Z,81.13
2019-03-19T06:22:33.219Z,81.04
2019-03-19T06:23:13.788Z,81.13
2019-03-19T06:23:54.366Z,81.04
2019-03-19T06:24:34.894Z,80.84
2019-03-19T06:25:15.487Z,81.04
2019-03-19T06:25:56.019Z,81.04
2019-03-19T06:26:36.607Z,80.94
2019-03-19T06:27:17.159Z,81.04
2019-03-19T06:28:00.537Z,83.69
2019-03-19T06:28:38.279Z,87.49
2019-03-19T06:29:18.871Z,90.19
2019-03-19T06:29:59.468Z,92.09
2019-03-19T06:30:40.058Z,92.47
2019-03-19T06:31:20.673Z,92.71
2019-03-19T06:32:01.274Z,91.94
2019-03-19T06:32:41.852Z,90.71
2019-03-19T06:33:22.420Z,89.47
2019-03-19T06:34:02.989Z,88.95
2019-03-19T06:34:43.648Z,88
2019-03-19T06:35:24.237Z,87.28
2019-03-19T06:36:04.813Z,85.95
2019-03-19T06:36:45.389Z,86.14
2019-03-19T06:37:25.947Z,84.52
2019-03-19T06:38:06.516Z,83.29
2019-03-19T06:38:47.093Z,81.96
2019-03-19T06:39:27.661Z,80.38
2019-03-19T06:40:08.294Z,78.57
2019-03-19T06:40:48.854Z,79.14
2019-03-19T06:41:29.417Z,79.14
2019-03-19T06:42:09.974Z,78.48
2019-03-19T06:42:50.627Z,78.1
2019-03-19T06:43:31.198Z,77.81
2019-03-19T06:44:11.750Z,76.86
2019-03-19T06:44:52.415Z,75.91
2019-03-19T06:45:33.001Z,76.39
2019-03-19T06:46:13.570Z,75.34
2019-03-19T06:46:54.129Z,75.05
2019-03-19T06:47:34.930Z,75.47
2019-03-19T06:48:15.569Z,74.8
2019-03-19T06:48:56.431Z,74.62
2019-03-19T06:49:37.102Z,74.43
2019-03-19T06:50:17.776Z,73.76
2019-03-19T06:50:58.392Z,72.9
2019-03-19T06:51:38.961Z,72.52
2019-03-19T06:52:19.532Z,72.42
2019-03-19T06:53:00.083Z,71.67
2019-03-19T06:53:40.649Z,70.9
2019-03-19T06:54:21.409Z,70.84
2019-03-19T06:55:01.964Z,69.6
2019-03-19T06:55:42.616Z,67.99
2019-03-19T06:56:23.231Z,66.91
2019-03-19T06:57:03.815Z,66.14
2019-03-19T06:57:44.395Z,65.95
2019-03-19T06:58:25.016Z,66.02
2019-03-19T06:59:05.712Z,66.3
2019-03-19T06:59:46.402Z,66.2
2019-03-19T07:00:27.000Z,67.25
2019-03-19T07:01:07.599Z,67.5
2019-03-19T07:01:48.183Z,67.98
2019-03-19T07:02:28.761Z,68.65
2019-03-19T07:03:09.314Z,69.31
2019-03-19T07:03:49.952Z,69.31
2019-03-19T07:04:30.522Z,70.04
2019-03-19T07:05:11.221Z,69.75
2019-03-19T07:05:51.829Z,70.42
2019-03-19T07:06:32.491Z,70.79
2019-03-19T07:07:13.216Z,71.56
2019-03-19T07:07:53.876Z,71.94
2019-03-19T07:08:34.709Z,72.41
2019-03-19T07:09:15.399Z,72.22
2019-03-19T07:09:55.983Z,72.79
2019-03-19T07:10:36.636Z,73.08
2019-03-19T07:11:17.226Z,73.18
2019-03-19T07:11:57.784Z,73.36
2019-03-19T07:12:38.454Z,73.65
2019-03-19T07:13:18.946Z,73.65
2019-03-19T07:13:59.553Z,73.46
2019-03-19T07:14:40.182Z,73.46
2019-03-19T07:15:20.842Z,73.27
2019-03-19T07:16:01.526Z,73.8
2019-03-19T07:16:42.242Z,73.71
2019-03-19T07:17:22.922Z,73.74
2019-03-19T07:18:03.694Z,73.9
2019-03-19T07:18:44.470Z,73.71
2019-03-19T07:19:25.344Z,73.71
2019-03-19T07:20:06.029Z,72.95
2019-03-19T07:20:46.810Z,73.23
2019-03-19T07:21:27.479Z,73.42
2019-03-19T07:22:08.103Z,73.8
2019-03-19T07:22:48.691Z,73.9
2019-03-19T07:23:29.498Z,74.37
2019-03-19T07:24:10.076Z,74.18
2019-03-19T07:24:50.707Z,74.56
2019-03-19T07:25:31.308Z,74.27
2019-03-19T07:26:12.486Z,74.18
2019-03-19T07:26:53.091Z,74.37
2019-03-19T07:27:33.712Z,74.56
2019-03-19T07:28:21.829Z,74.37
2019-03-19T07:28:54.801Z,74.08
2019-03-19T07:29:35.622Z,74.66
2019-03-19T07:30:16.165Z,74.27
2019-03-19T07:30:56.779Z,74.37
2019-03-19T07:31:37.308Z,74.37
2019-03-19T07:32:17.863Z,74.47
2019-03-19T07:32:58.439Z,74.47
2019-03-19T07:33:39.014Z,74.43
2019-03-19T07:34:19.575Z,74.52
2019-03-19T07:35:00.402Z,74.9
2019-03-19T07:35:40.777Z,75.38
2019-03-19T07:36:21.359Z,75.28
2019-03-19T07:37:01.912Z,75.28
2019-03-19T07:37:42.470Z,75.47
2019-03-19T07:38:23.036Z,75.7
2019-03-19T07:39:03.607Z,75.85
2019-03-19T07:39:44.197Z,75.79
2019-03-19T07:40:24.739Z,75.89
2019-03-19T07:41:05.325Z,75.28
2019-03-19T07:41:45.903Z,75.04
2019-03-19T07:42:26.466Z,75.79
2019-03-19T07:43:07.035Z,75.89
2019-03-19T07:43:47.635Z,75.42
2019-03-19T07:44:28.183Z,75.04
2019-03-19T07:45:08.797Z,74.85
2019-03-19T07:45:49.384Z,74.94
2019-03-19T07:46:29.969Z,75.04
2019-03-19T07:47:10.538Z,74.75
2019-03-19T07:47:51.101Z,74.56
2019-03-19T07:48:31.666Z,74.75
2019-03-19T07:49:12.228Z,74.75
2019-03-19T07:49:52.839Z,74.18
2019-03-19T07:50:33.409Z,74.08
2019-03-19T07:51:13.969Z,74.08
2019-03-19T07:51:54.551Z,74.08
2019-03-19T07:52:35.102Z,73.8
2019-03-19T07:53:16.974Z,73.8
2019-03-19T07:54:09.312Z,73.61
2019-03-19T07:56:47.478Z,73.52
2019-03-19T07:57:29.538Z,74.08
2019-03-19T07:58:08.600Z,74.12
2019-03-19T07:58:49.166Z,74.12
2019-03-19T07:59:29.726Z,73.55
2019-03-19T08:00:14.051Z,72.74
2019-03-19T08:00:54.719Z,71.78
2019-03-19T08:01:35.274Z,71.41
2019-03-19T08:02:17.877Z,69.98
2019-03-19T08:02:58.607Z,69.41
2019-03-19T08:03:39.309Z,68.68
2019-03-19T08:04:19.799Z,68.46
2019-03-19T08:05:00.685Z,68.55
2019-03-19T08:05:41.232Z,68.36
2019-03-19T08:06:21.793Z,68.36
2019-03-19T08:07:02.362Z,68.07
2019-03-19T08:07:42.914Z,67.69
2019-03-19T08:08:23.485Z,67.03
2019-03-19T08:09:04.150Z,66.65
2019-03-19T08:09:45.015Z,67.03
2019-03-19T08:10:25.594Z,67.22
2019-03-19T08:11:06.152Z,67.6
2019-03-19T08:11:46.742Z,67.32
2019-03-19T08:12:27.833Z,67.5
2019-03-19T08:13:08.390Z,67.22
2019-03-19T08:13:49.006Z,67.22
2019-03-19T08:14:29.527Z,66.74
2019-03-19T08:15:10.101Z,67.03
2019-03-19T08:15:50.691Z,66.94
2019-03-19T08:16:31.250Z,67.22
2019-03-19T08:17:11.814Z,67.44
2019-03-19T08:17:52.387Z,67.73
2019-03-19T08:18:32.948Z,67.44
2019-03-19T08:19:13.519Z,67.07
2019-03-19T08:19:54.090Z,65.58
2019-03-19T08:20:34.651Z,65
2019-03-19T08:21:15.276Z,64.62
2019-03-19T08:21:55.918Z,63.96
2019-03-19T08:22:36.667Z,64.05
2019-03-19T08:23:17.322Z,64.43
2019-03-19T08:23:58.823Z,63.67
2019-03-19T08:24:38.977Z,62.81
2019-03-19T08:25:19.514Z,62.72
2019-03-19T08:26:00.134Z,62.81
2019-03-19T08:26:40.686Z,62.62
2019-03-19T08:27:21.269Z,62.72
2019-03-19T08:28:01.842Z,63.57
2019-03-19T08:28:42.413Z,63.48
2019-03-19T08:29:22.997Z,64.05
2019-03-19T08:30:03.566Z,63.86
2019-03-19T08:30:44.158Z,64.15
2019-03-19T08:31:24.863Z,63.67
2019-03-19T08:32:05.436Z,63.76
2019-03-19T08:32:46.000Z,63.64
2019-03-19T08:33:26.575Z,64.02
2019-03-19T08:34:07.135Z,64.59
2019-03-19T08:34:47.709Z,64.87
2019-03-19T08:35:28.279Z,65.45
2019-03-19T08:36:09.665Z,64.9
2019-03-19T08:36:49.422Z,64.43
2019-03-19T08:37:29.988Z,63.86
2019-03-19T08:38:10.572Z,63.92
2019-03-19T08:38:51.134Z,64.21
2019-03-19T08:39:31.688Z,63.92
2019-03-19T08:40:12.266Z,64.4
2019-03-19T08:40:52.825Z,64.59
2019-03-19T08:41:33.385Z,64.31
2019-03-19T08:42:13.970Z,64.59
2019-03-19T08:42:54.561Z,64.87
2019-03-19T08:43:35.128Z,64.78
2019-03-19T08:44:15.684Z,65.06
2019-03-19T08:44:56.247Z,65.45
2019-03-19T08:45:36.842Z,65.92
2019-03-19T08:46:17.428Z,65.73